Time;durP1;ratioP1;P1;durP2;ratioP2;P2;SDS_P1;SDS_P2;PMS_P1;PMS_P2;Temp;Humidity;BMP_temperature;BMP_pressure;BME280_temperature;BME280_humidity;BME280_pressure;Samples;Min_cycle;Max_cycle;Signal;HPM_P1;HPM_P2
2023/10/17 00:00:38;;;;;;;7.50;4.00;;;;;;;5.40;73.82;100641.23;131000;1268;106971;-77
2023/10/17 00:04:24;;;;;;;8.20;4.40;;;;;;;5.41;74.16;100639.77;131055;1257;109614;-77
2023/10/17 00:07:30;;;;;;;10.50;4.70;;;;;;;5.40;73.96;100639.05;130862;1257;106810;-77
2023/10/17 00:10:41;;;;;;;9.00;5.00;;;;;;;5.38;73.90;100635.00;130688;1272;106996;-76
2023/10/17 00:13:59;;;;;;;9.80;5.10;;;;;;;5.35;73.63;100639.80;130975;1252;108655;-76
2023/10/17 00:17:05;;;;;;;9.40;5.00;;;;;;;5.31;73.94;100641.14;131076;1255;108202;-76
2023/10/17 00:20:17;;;;;;;8.50;4.40;;;;;;;5.25;73.73;100640.33;130894;1253;107814;-77
2023/10/17 00:23:24;;;;;;;10.80;4.80;;;;;;;5.19;73.73;100640.61;131083;1253;107895;-78
2023/10/17 00:26:30;;;;;;;11.50;5.70;;;;;;;5.11;73.70;100637.44;131034;1253;108203;-78
2023/10/17 00:29:36;;;;;;;8.40;5.40;;;;;;;5.04;73.78;100635.29;130887;1257;108282;-77
2023/10/17 00:32:43;;;;;;;9.10;4.70;;;;;;;4.99;73.76;100638.28;130970;1253;107722;-78
2023/10/17 00:35:52;;;;;;;7.40;4.40;;;;;;;4.94;73.41;100639.91;130951;1257;108680;-78
2023/10/17 00:39:08;;;;;;;7.40;3.70;;;;;;;4.87;73.55;100637.89;130935;1257;106381;-77
2023/10/17 00:42:29;;;;;;;7.40;4.10;;;;;;;4.82;73.52;100641.97;130894;1256;108565;-76
2023/10/17 00:45:35;;;;;;;9.40;4.10;;;;;;;4.80;73.49;100641.08;130994;1264;108073;-77
2023/10/17 00:48:42;;;;;;;12.00;4.90;;;;;;;4.80;73.66;100643.88;131053;1255;106386;-77
2023/10/17 00:51:48;;;;;;;10.10;4.70;;;;;;;4.80;73.67;100649.50;130955;1258;106271;-77
2023/10/17 00:54:54;;;;;;;9.60;4.50;;;;;;;4.78;73.57;100652.85;130967;1253;108816;-77
2023/10/17 00:58:00;;;;;;;8.20;4.70;;;;;;;4.74;73.56;100655.74;130947;1255;108599;-77
2023/10/17 01:01:14;;;;;;;8.30;4.50;;;;;;;4.68;73.19;100654.53;130835;1253;106873;-77
2023/10/17 01:04:23;;;;;;;9.00;4.60;;;;;;;4.62;73.07;100657.96;130937;1256;108690;-77
2023/10/17 01:07:30;;;;;;;7.80;4.90;;;;;;;4.55;73.29;100654.38;130963;1256;106458;-77
2023/10/17 01:10:37;;;;;;;8.20;4.80;;;;;;;4.48;73.14;100650.23;130948;1257;106909;-77
2023/10/17 01:13:44;;;;;;;9.60;5.00;;;;;;;4.42;73.18;100650.33;130874;1254;108483;-76
2023/10/17 01:16:53;;;;;;;11.00;5.50;;;;;;;4.35;73.23;100645.70;130974;1252;107616;-76
2023/10/17 01:20:07;;;;;;;10.20;5.20;;;;;;;4.29;73.29;100645.89;131065;1253;107696;-77
2023/10/17 01:23:14;;;;;;;10.20;5.00;;;;;;;4.24;73.36;100643.23;131192;1256;107735;-77
2023/10/17 01:26:23;;;;;;;9.50;5.20;;;;;;;4.17;73.46;100645.45;130945;1253;108849;-76
2023/10/17 01:29:28;;;;;;;10.80;5.10;;;;;;;4.13;73.77;100642.20;130890;1259;108685;-76
2023/10/17 01:32:34;;;;;;;9.10;4.70;;;;;;;4.12;73.80;100645.98;130947;1254;106833;-77
2023/10/17 01:35:43;;;;;;;9.70;5.10;;;;;;;4.13;73.72;100645.53;130944;1257;107169;-76
2023/10/17 01:38:50;;;;;;;10.00;5.30;;;;;;;4.15;73.50;100645.60;130906;1259;107732;-77
2023/10/17 01:41:56;;;;;;;9.70;5.40;;;;;;;4.16;73.49;100652.23;130795;1253;108517;-77
2023/10/17 01:45:05;;;;;;;11.00;5.70;;;;;;;4.16;73.57;100654.52;130882;1256;108004;-76
2023/10/17 01:48:13;;;;;;;11.20;6.10;;;;;;;4.15;73.55;100653.38;130943;1267;108799;-77
2023/10/17 01:51:19;;;;;;;10.10;5.70;;;;;;;4.12;73.59;100657.06;130888;1259;108533;-77
2023/10/17 01:54:25;;;;;;;12.50;6.60;;;;;;;4.12;73.72;100663.77;130855;1268;107423;-76
2023/10/17 01:57:34;;;;;;;11.70;6.90;;;;;;;4.09;74.01;100666.05;130940;1256;106817;-77
2023/10/17 02:00:42;;;;;;;12.10;6.50;;;;;;;4.06;73.95;100666.95;130780;1259;107579;-77
2023/10/17 02:03:48;;;;;;;13.40;8.10;;;;;;;4.03;74.19;100669.84;131049;1255;106495;-77
2023/10/17 02:06:54;;;;;;;13.70;6.70;;;;;;;4.00;74.28;100670.75;130789;1259;106828;-77
2023/10/17 02:10:00;;;;;;;14.00;7.20;;;;;;;3.98;74.26;100672.81;130935;1252;108792;-77
2023/10/17 02:13:07;;;;;;;14.40;6.80;;;;;;;3.97;74.32;100675.31;130984;1253;107765;-77
2023/10/17 02:16:13;;;;;;;13.00;6.50;;;;;;;4.01;74.35;100676.61;130736;1253;106854;-77
2023/10/17 02:19:20;;;;;;;15.40;7.90;;;;;;;4.06;74.47;100676.65;130965;1257;109467;-77
2023/10/17 02:22:26;;;;;;;13.30;7.30;;;;;;;4.10;74.44;100679.38;131071;1257;107592;-77
2023/10/17 02:25:34;;;;;;;13.40;7.30;;;;;;;4.12;74.34;100675.17;130991;1253;108699;-77
2023/10/17 02:28:46;;;;;;;12.80;7.00;;;;;;;4.15;74.44;100676.98;130935;1256;108555;-77
2023/10/17 02:31:52;;;;;;;13.50;7.80;;;;;;;4.13;74.32;100680.08;130829;1258;108398;-78
2023/10/17 02:34:58;;;;;;;14.20;7.50;;;;;;;4.11;74.46;100678.79;130970;1253;106355;-81
2023/10/17 02:38:06;;;;;;;15.40;7.20;;;;;;;4.09;74.41;100681.22;131151;1253;108726;-78
2023/10/17 02:41:18;;;;;;;13.40;7.60;;;;;;;4.05;74.35;100679.19;131060;1253;107207;-76
2023/10/17 02:44:24;;;;;;;14.80;7.90;;;;;;;4.01;74.32;100678.42;130951;1255;107800;-76
2023/10/17 02:47:31;;;;;;;14.70;7.60;;;;;;;3.97;74.32;100675.33;131193;1253;107427;-78
2023/10/17 02:50:42;;;;;;;14.70;7.60;;;;;;;3.92;74.03;100675.64;130936;1253;106481;-76
2023/10/17 02:53:51;;;;;;;13.50;7.60;;;;;;;3.86;74.32;100678.15;130862;1256;106983;-76
2023/10/17 02:56:57;;;;;;;14.20;8.10;;;;;;;3.80;74.32;100684.88;130966;1253;108542;-76
2023/10/17 03:00:20;;;;;;;13.10;6.80;;;;;;;3.76;74.35;100687.77;130856;1253;106803;-76
2023/10/17 03:03:26;;;;;;;13.40;7.50;;;;;;;3.71;74.63;100686.35;130926;1256;108346;-76
2023/10/17 03:06:33;;;;;;;14.00;6.70;;;;;;;3.69;74.51;100688.19;130905;1256;107878;-76
2023/10/17 03:09:39;;;;;;;12.80;7.10;;;;;;;3.70;74.51;100688.83;130949;1257;106406;-76
2023/10/17 03:12:53;;;;;;;13.10;7.40;;;;;;;3.70;74.34;100685.67;130853;1254;108678;-76
2023/10/17 03:16:13;;;;;;;12.30;6.90;;;;;;;3.69;74.38;100689.25;130914;1259;108763;-76
2023/10/17 03:19:25;;;;;;;10.60;6.70;;;;;;;3.68;74.11;100692.29;130958;1258;108827;-76
2023/10/17 03:22:31;;;;;;;13.00;8.00;;;;;;;3.67;73.90;100698.38;130902;1253;107810;-76
2023/10/17 03:25:38;;;;;;;11.90;7.80;;;;;;;3.62;73.77;100697.98;130955;1253;106888;-76
2023/10/17 03:28:45;;;;;;;12.40;7.60;;;;;;;3.58;73.90;100699.98;130804;1258;106018;-76
2023/10/17 03:31:58;;;;;;;12.30;7.30;;;;;;;3.54;73.75;100700.27;130959;1258;107407;-72
2023/10/17 03:35:07;;;;;;;12.20;7.20;;;;;;;3.47;73.60;100697.52;130903;1257;106730;-77
2023/10/17 03:38:14;;;;;;;12.40;6.90;;;;;;;3.40;73.54;100701.49;131033;1256;105696;-75
2023/10/17 03:41:24;;;;;;;12.60;6.80;;;;;;;3.33;73.49;100710.32;130917;1253;107086;-76
2023/10/17 03:44:30;;;;;;;13.60;7.40;;;;;;;3.26;73.47;100705.83;130864;1256;106395;-77
2023/10/17 03:47:36;;;;;;;12.50;7.70;;;;;;;3.21;73.21;100714.09;130914;1258;107654;-76
2023/10/17 03:50:57;;;;;;;13.70;7.20;;;;;;;3.15;73.20;100711.48;130937;1253;107636;-75
2023/10/17 03:54:07;;;;;;;17.10;7.40;;;;;;;3.06;73.21;100712.02;130955;1255;107737;-77
2023/10/17 03:57:15;;;;;;;12.30;7.00;;;;;;;2.99;73.25;100712.77;130887;1259;106703;-77
2023/10/17 04:00:27;;;;;;;12.60;7.10;;;;;;;2.93;73.34;100711.76;130997;1254;108373;-77
2023/10/17 04:03:34;;;;;;;12.90;6.80;;;;;;;2.87;73.41;100718.10;130929;1257;106534;-77
2023/10/17 04:06:41;;;;;;;13.60;7.00;;;;;;;2.83;73.14;100713.05;130800;1257;107801;-77
2023/10/17 04:09:54;;;;;;;14.00;6.70;;;;;;;2.82;73.20;100712.58;130941;1257;106810;-76
2023/10/17 04:13:13;;;;;;;10.50;6.60;;;;;;;2.84;73.00;100710.89;130776;1253;107898;-77
2023/10/17 04:16:22;;;;;;;12.00;6.90;;;;;;;2.85;73.11;100705.16;130772;1259;107781;-77
2023/10/17 04:19:30;;;;;;;12.70;7.40;;;;;;;2.86;73.12;100706.03;130799;1254;107959;-77
2023/10/17 04:22:38;;;;;;;15.40;8.20;;;;;;;2.85;72.90;100711.14;130915;1258;108785;-75
2023/10/17 04:25:44;;;;;;;15.10;7.70;;;;;;;2.84;73.10;100705.94;130643;1253;107313;-75
2023/10/17 04:28:50;;;;;;;15.90;8.20;;;;;;;2.83;72.82;100707.92;130834;1257;107686;-76
2023/10/17 04:31:57;;;;;;;17.50;9.60;;;;;;;2.80;73.06;100711.98;130851;1258;106769;-76
2023/10/17 04:35:03;;;;;;;18.90;9.10;;;;;;;2.77;72.93;100715.33;130908;1253;107734;-77
2023/10/17 04:38:18;;;;;;;14.50;7.90;;;;;;;2.73;72.99;100716.07;130822;1258;106805;-76
2023/10/17 04:41:40;;;;;;;13.40;7.40;;;;;;;2.70;73.05;100717.67;130845;1255;107206;-77
2023/10/17 04:44:51;;;;;;;12.80;7.50;;;;;;;2.66;72.90;100717.20;130880;1253;107352;-76
2023/10/17 04:51:31;;;;;;;13.70;7.20;;;;;;;2.55;72.99;100721.21;130836;1253;106207;-75
2023/10/17 04:54:41;;;;;;;14.40;7.90;;;;;;;2.49;72.81;100721.36;130760;1253;106931;-76
2023/10/17 04:57:57;;;;;;;12.60;7.20;;;;;;;2.44;72.89;100722.55;130759;1253;107541;-76
2023/10/17 05:01:18;;;;;;;11.70;7.00;;;;;;;2.40;72.88;100724.55;134602;1253;106424;-75
2023/10/17 05:04:33;;;;;;;13.20;7.40;;;;;;;2.36;72.85;100723.16;135055;1251;106658;-76
2023/10/17 05:07:58;;;;;;;15.20;7.70;;;;;;;2.34;72.77;100728.35;133759;1253;108714;-75
2023/10/17 06:18:49;;;;;;;16.20;6.70;;;;;;;2.86;73.46;100780.66;130867;1257;107310;-77
2023/10/17 06:28:46;;;;;;;13.10;7.90;;;;;;;3.16;73.69;100786.80;130826;1257;106514;-76
2023/10/17 06:32:04;;;;;;;13.00;7.90;;;;;;;3.28;73.75;100787.35;130791;1258;107651;-76
2023/10/17 06:35:20;;;;;;;18.50;11.30;;;;;;;3.36;73.96;100786.83;130890;1260;108547;-77
2023/10/17 06:38:29;;;;;;;32.70;20.80;;;;;;;3.42;74.55;100788.59;130860;1253;107013;-77
2023/10/17 06:41:39;;;;;;;36.00;23.10;;;;;;;3.52;74.74;100793.92;130821;1255;107567;-77
2023/10/17 06:44:53;;;;;;;28.40;18.70;;;;;;;3.62;75.09;100797.05;130898;1257;107670;-76
2023/10/17 06:47:59;;;;;;;19.60;12.10;;;;;;;3.69;75.20;100799.03;130751;1259;108291;-76
2023/10/17 06:54:40;;;;;;;12.50;7.70;;;;;;;3.94;75.90;100806.65;130545;1258;284773;-74
2023/10/17 06:57:50;;;;;;;28.10;18.10;;;;;;;4.09;76.21;100811.70;130774;1256;108658;-75
2023/10/17 07:00:59;;;;;;;27.10;15.90;;;;;;;4.26;76.47;100813.75;130796;1253;108413;-75
2023/10/17 07:04:11;;;;;;;38.70;23.30;;;;;;;4.45;76.71;100816.43;130862;1257;108697;-75
2023/10/17 07:07:18;;;;;;;81.60;46.30;;;;;;;4.63;76.89;100815.56;130815;1258;106261;-75
2023/10/17 07:10:37;;;;;;;46.20;28.10;;;;;;;4.80;76.99;100814.13;130806;1257;107733;-75
2023/10/17 07:14:10;;;;;;;31.90;19.00;;;;;;;4.95;77.08;100817.33;130782;1267;108806;-75
2023/10/17 07:17:25;;;;;;;25.50;15.40;;;;;;;5.09;77.26;100812.34;130841;1257;109169;-78
2023/10/17 07:21:14;;;;;;;17.80;11.00;;;;;;;5.21;77.36;100805.73;130832;1254;106886;-77
2023/10/17 07:24:06;;;;;;;16.70;10.50;;;;;;;5.33;77.63;100808.44;130801;1264;107433;-76
2023/10/17 07:27:33;;;;;;;18.10;10.10;;;;;;;5.40;78.04;100808.44;130833;1267;106632;-76
2023/10/17 07:30:49;;;;;;;11.50;7.10;;;;;;;5.52;78.21;100806.94;130804;1259;106651;-76
2023/10/17 07:34:07;;;;;;;13.30;7.20;;;;;;;5.66;78.11;100804.88;130799;1267;106984;-76
2023/10/17 07:37:22;;;;;;;12.40;6.90;;;;;;;5.82;78.18;100805.55;130882;1257;107717;-76
2023/10/17 07:40:33;;;;;;;11.60;6.40;;;;;;;5.98;77.95;100805.86;130775;1253;106346;-76
2023/10/17 07:43:43;;;;;;;9.50;6.60;;;;;;;6.11;77.93;100806.84;130809;1257;107724;-76
2023/10/17 07:46:59;;;;;;;11.60;7.10;;;;;;;6.22;77.99;100810.80;130737;1253;109028;-76
2023/10/17 07:50:12;;;;;;;11.80;6.80;;;;;;;6.32;78.05;100813.14;130957;1254;107406;-76
2023/10/17 07:53:20;;;;;;;11.30;6.60;;;;;;;6.42;78.60;100813.29;130854;1257;107723;-77
2023/10/17 07:56:26;;;;;;;9.70;5.30;;;;;;;6.49;78.51;100815.77;130777;1257;106346;-76
2023/10/17 07:59:32;;;;;;;7.40;4.00;;;;;;;6.55;78.73;100816.91;130784;1257;108610;-77
2023/10/17 08:02:40;;;;;;;5.70;3.20;;;;;;;6.66;78.69;100815.39;130773;1257;108552;-76
2023/10/17 08:05:58;;;;;;;9.70;4.70;;;;;;;6.77;78.17;100820.38;130925;1259;108605;-76
2023/10/17 08:09:16;;;;;;;11.70;4.70;;;;;;;6.93;77.93;100824.19;130826;1256;108758;-75
2023/10/17 08:12:23;;;;;;;9.50;3.90;;;;;;;7.05;77.84;100824.30;130800;1258;106700;-76
2023/10/17 08:15:36;;;;;;;9.80;4.80;;;;;;;7.16;77.69;100824.59;130855;1253;108095;-75
2023/10/17 08:18:42;;;;;;;10.20;4.60;;;;;;;7.23;77.86;100825.94;130780;1262;108011;-77
2023/10/17 08:22:10;;;;;;;8.30;3.40;;;;;;;7.31;77.87;100824.67;130873;1257;108554;-76
2023/10/17 08:25:25;;;;;;;6.90;3.70;;;;;;;7.37;77.89;100827.04;130780;1257;106765;-75
2023/10/17 08:28:37;;;;;;;8.60;5.30;;;;;;;7.44;77.52;100827.91;130776;1259;106411;-76
2023/10/17 08:31:45;;;;;;;6.80;3.70;;;;;;;7.43;77.13;100827.56;130795;1259;107856;-75
2023/10/17 08:34:56;;;;;;;7.50;2.90;;;;;;;7.45;77.44;100827.30;130872;1265;107021;-75
2023/10/17 08:38:03;;;;;;;14.90;6.80;;;;;;;7.54;77.55;100818.95;130868;1259;105801;-75
2023/10/17 08:41:09;;;;;;;8.80;3.30;;;;;;;7.60;76.35;100822.41;130862;1257;108557;-75
2023/10/17 08:44:14;;;;;;;6.70;3.90;;;;;;;7.61;76.72;100822.16;130838;1256;108225;-75
2023/10/17 08:47:24;;;;;;;7.80;3.50;;;;;;;7.73;76.87;100828.65;130798;1257;106236;-76
2023/10/17 08:50:31;;;;;;;6.30;3.60;;;;;;;7.85;76.76;100822.90;130882;1257;106499;-75
2023/10/17 08:53:39;;;;;;;6.50;3.80;;;;;;;7.94;76.06;100821.13;130629;1256;106472;-75
2023/10/17 08:56:47;;;;;;;7.80;3.30;;;;;;;7.98;76.33;100820.83;130822;1256;107677;-75
2023/10/17 09:03:28;;;;;;;5.00;2.80;;;;;;;8.10;76.08;100825.55;130906;1267;107691;-75
2023/10/17 09:06:48;;;;;;;9.30;4.50;;;;;;;8.14;74.77;100825.05;130836;1258;108155;-75
2023/10/17 09:09:55;;;;;;;7.30;4.00;;;;;;;8.07;74.03;100822.59;130866;1256;106663;-76
2023/10/17 09:16:41;;;;;;;17.10;8.60;;;;;;;8.08;74.18;100820.91;130753;1258;105975;-75
2023/10/17 09:19:47;;;;;;;6.80;3.40;;;;;;;8.15;74.79;100823.21;130954;1253;108770;-75
2023/10/17 09:22:52;;;;;;;4.90;3.20;;;;;;;8.28;74.93;100821.13;130910;1266;107534;-75
2023/10/17 09:26:01;;;;;;;7.80;3.60;;;;;;;8.41;74.80;100823.09;130833;1263;107086;-75
2023/10/17 09:29:07;;;;;;;6.00;3.20;;;;;;;8.49;74.84;100819.80;130909;1256;107578;-75
2023/10/17 09:32:14;;;;;;;6.40;3.10;;;;;;;8.59;74.99;100817.37;130891;1257;108481;-75
2023/10/17 09:35:19;;;;;;;8.30;4.20;;;;;;;8.63;74.08;100814.50;130977;1259;108447;-76
2023/10/17 09:38:25;;;;;;;7.10;3.70;;;;;;;8.64;74.52;100820.66;130886;1257;106526;-75
2023/10/17 09:41:32;;;;;;;8.20;3.30;;;;;;;8.66;74.42;100817.68;130884;1266;107590;-76
2023/10/17 09:44:38;;;;;;;6.10;3.20;;;;;;;8.71;74.13;100818.52;130874;1259;108539;-75
2023/10/17 09:47:45;;;;;;;7.40;3.60;;;;;;;8.74;72.79;100816.10;130784;1254;106872;-75
2023/10/17 09:50:56;;;;;;;25.60;9.70;;;;;;;8.72;72.67;100812.96;130891;1265;108640;-75
2023/10/17 09:54:04;;;;;;;17.40;7.50;;;;;;;8.67;73.32;100809.10;130789;1257;108753;-75
2023/10/17 09:57:14;;;;;;;14.70;6.50;;;;;;;8.69;73.26;100804.64;130866;1267;106569;-74
2023/10/17 10:00:32;;;;;;;13.50;6.30;;;;;;;8.74;73.70;100800.50;130770;1267;107739;-78
2023/10/17 10:03:40;;;;;;;7.80;3.30;;;;;;;8.85;73.25;100800.17;130886;1257;107893;-75
2023/10/17 10:06:45;;;;;;;11.50;5.80;;;;;;;8.94;71.05;100798.67;130872;1257;108801;-75
2023/10/17 10:09:51;;;;;;;9.90;5.70;;;;;;;8.95;69.17;100791.48;130839;1257;107860;-75
2023/10/17 10:13:07;;;;;;;5.80;2.70;;;;;;;8.99;71.54;100791.52;130833;1256;106475;-75
2023/10/17 10:16:13;;;;;;;7.10;2.20;;;;;;;9.09;72.00;100790.89;130866;1257;106524;-75
2023/10/17 10:19:18;;;;;;;4.90;2.10;;;;;;;9.23;71.78;100786.10;130863;1259;106642;-75
2023/10/17 10:22:24;;;;;;;6.50;3.40;;;;;;;9.33;69.13;100788.95;130833;1253;107188;-75
2023/10/17 10:25:29;;;;;;;6.40;3.00;;;;;;;9.35;68.37;100783.79;130816;1257;106780;-78
2023/10/17 10:28:35;;;;;;;10.00;5.80;;;;;;;9.38;65.70;100776.09;130709;1265;106778;-76
2023/10/17 10:31:42;;;;;;;13.40;7.70;;;;;;;9.42;66.16;100774.63;130872;1254;108640;-77
2023/10/17 10:34:48;;;;;;;13.90;7.30;;;;;;;9.48;65.84;100773.98;130882;1264;108153;-75
2023/10/17 10:37:54;;;;;;;5.60;2.70;;;;;;;9.58;67.96;100769.37;130827;1258;107702;-75
2023/10/17 10:41:08;;;;;;;11.20;6.20;;;;;;;9.70;67.67;100770.11;130799;1259;106507;-75
2023/10/17 10:44:14;;;;;;;8.30;4.70;;;;;;;9.77;65.57;100768.06;130858;1266;108675;-75
2023/10/17 10:47:19;;;;;;;20.90;12.50;;;;;;;9.77;64.88;100766.89;130742;1257;108725;-76
2023/10/17 10:50:27;;;;;;;4.80;2.20;;;;;;;9.71;64.47;100760.46;130924;1258;107778;-75
2023/10/17 10:53:36;;;;;;;9.70;5.30;;;;;;;9.69;66.30;100752.83;130841;1254;107457;-76
2023/10/17 10:56:50;;;;;;;5.40;2.10;;;;;;;9.76;67.10;100749.66;130799;1258;107686;-75
2023/10/17 10:59:55;;;;;;;11.70;6.00;;;;;;;9.84;65.82;100746.88;130832;1256;108678;-75
2023/10/17 11:03:02;;;;;;;11.10;5.60;;;;;;;9.90;65.25;100742.61;130869;1258;107117;-75
2023/10/17 11:06:08;;;;;;;14.60;9.20;;;;;;;9.92;64.61;100739.06;130952;1256;108508;-75
2023/10/17 11:09:23;;;;;;;12.70;5.90;;;;;;;9.92;62.44;100733.73;130865;1257;106177;-75
2023/10/17 11:12:29;;;;;;;6.90;3.40;;;;;;;9.94;65.29;100731.38;130797;1258;107681;-75
2023/10/17 11:15:35;;;;;;;7.60;3.60;;;;;;;9.98;63.00;100730.69;130849;1258;107869;-75
2023/10/17 11:18:43;;;;;;;9.20;5.40;;;;;;;10.03;64.43;100730.38;130890;1256;107274;-75
2023/10/17 11:21:55;;;;;;;9.60;5.40;;;;;;;10.01;63.73;100732.58;130909;1255;107633;-75
2023/10/17 11:25:07;;;;;;;5.70;3.10;;;;;;;9.93;63.41;100730.27;130906;1257;108077;-76
2023/10/17 11:28:16;;;;;;;5.40;2.40;;;;;;;9.88;64.56;100728.98;130893;1254;107914;-75
2023/10/17 11:31:23;;;;;;;7.00;2.80;;;;;;;9.82;65.34;100724.67;130798;1257;106412;-77
2023/10/17 11:34:35;;;;;;;6.80;2.50;;;;;;;9.79;64.98;100722.73;130845;1266;107716;-76
2023/10/17 11:37:47;;;;;;;4.80;2.10;;;;;;;9.74;65.08;100720.25;130861;1260;107687;-75
2023/10/17 11:40:53;;;;;;;;;;;;;;;9.64;64.82;100718.02;130869;1257;107800;-75
2023/10/17 11:44:05;;;;;;;3.50;2.00;;;;;;;9.56;63.75;100714.88;130874;1258;107697;-75
2023/10/17 11:47:23;;;;;;;7.30;4.20;;;;;;;9.42;62.36;100716.23;130814;1257;107665;-75
2023/10/17 11:50:38;;;;;;;6.20;2.90;;;;;;;9.37;63.97;100715.84;130856;1257;107784;-76
2023/10/17 11:54:05;;;;;;;10.30;6.80;;;;;;;9.36;64.50;100715.89;130855;1257;107696;-76
2023/10/17 11:57:16;;;;;;;4.40;2.30;;;;;;;9.33;63.98;100712.42;130814;1254;106772;-76
2023/10/17 12:00:31;;;;;;;8.00;4.80;;;;;;;9.31;64.45;100709.92;130835;1257;107560;-76
2023/10/17 12:03:36;;;;;;;6.30;3.30;;;;;;;9.30;64.21;100704.21;130854;1257;107795;-76
2023/10/17 12:06:44;;;;;;;24.00;11.70;;;;;;;9.30;64.44;100701.52;130878;1257;107665;-76
2023/10/17 12:09:53;;;;;;;7.80;4.10;;;;;;;9.36;63.52;100701.67;130778;1257;106677;-76
2023/10/17 12:12:59;;;;;;;6.10;3.50;;;;;;;9.44;63.66;100700.63;130770;1254;108687;-75
2023/10/17 12:16:08;;;;;;;7.30;4.00;;;;;;;9.54;63.86;100694.42;130862;1254;108359;-76
2023/10/17 12:19:16;;;;;;;6.20;3.80;;;;;;;9.66;63.20;100697.84;130820;1257;105680;-76
2023/10/17 12:22:22;;;;;;;6.90;4.30;;;;;;;9.72;62.70;100697.27;130895;1254;106543;-76
2023/10/17 12:25:32;;;;;;;6.60;3.80;;;;;;;9.75;62.58;100689.20;130774;1257;107007;-76
2023/10/17 12:28:41;;;;;;;6.60;4.20;;;;;;;9.77;61.92;100684.92;130800;1257;108586;-76
2023/10/17 12:31:46;;;;;;;7.60;4.40;;;;;;;9.78;63.68;100679.70;130829;1257;108543;-76
2023/10/17 12:34:54;;;;;;;9.70;4.90;;;;;;;9.75;62.38;100677.81;130821;1257;108525;-76
2023/10/17 12:38:06;;;;;;;8.90;4.70;;;;;;;9.67;62.57;100671.29;130781;1254;107384;-76
2023/10/17 12:41:12;;;;;;;5.10;2.90;;;;;;;9.71;62.72;100671.98;130836;1256;106446;-76
2023/10/17 12:44:18;;;;;;;4.60;2.10;;;;;;;9.75;62.09;100667.16;130737;1257;108146;-77
2023/10/17 12:47:24;;;;;;;8.00;3.30;;;;;;;9.80;62.26;100663.71;130823;1257;106430;-76
2023/10/17 12:50:29;;;;;;;9.30;5.20;;;;;;;9.83;61.54;100660.77;130877;1262;106722;-76
2023/10/17 12:53:35;;;;;;;7.10;4.30;;;;;;;9.82;61.47;100660.11;130843;1254;108564;-76
2023/10/17 12:56:40;;;;;;;4.80;2.40;;;;;;;9.81;61.69;100653.45;130827;1253;108759;-76
2023/10/17 12:59:46;;;;;;;6.10;3.20;;;;;;;9.81;61.31;100652.27;130909;1264;107468;-75
2023/10/17 13:02:52;;;;;;;10.00;5.30;;;;;;;9.76;61.38;100648.64;130766;1254;107870;-76
2023/10/17 13:05:58;;;;;;;6.00;3.80;;;;;;;9.70;62.86;100652.16;130866;1259;106804;-76
2023/10/17 13:09:05;;;;;;;4.80;2.30;;;;;;;9.71;63.05;100654.58;130768;1254;107644;-76
2023/10/17 13:12:10;;;;;;;5.50;2.80;;;;;;;9.67;62.88;100648.20;130858;1257;106653;-76
2023/10/17 13:15:16;;;;;;;5.90;3.00;;;;;;;9.62;61.91;100648.61;130786;1258;106471;-76
2023/10/17 13:18:21;;;;;;;4.30;2.40;;;;;;;9.58;61.86;100648.64;130749;1258;106530;-76
2023/10/17 13:21:27;;;;;;;12.70;9.40;;;;;;;9.55;62.31;100645.15;130902;1258;106906;-76
2023/10/17 13:24:32;;;;;;;7.60;5.20;;;;;;;9.51;62.47;100644.13;130766;1257;108618;-75
2023/10/17 13:27:38;;;;;;;3.80;1.80;;;;;;;9.49;61.41;100643.59;130847;1257;107169;-76
2023/10/17 13:30:44;;;;;;;4.40;2.20;;;;;;;9.52;61.27;100643.73;130830;1252;108464;-76
2023/10/17 13:33:50;;;;;;;3.20;1.50;;;;;;;9.53;61.00;100637.77;130806;1257;108649;-76
2023/10/17 13:36:55;;;;;;;2.60;1.60;;;;;;;9.54;61.24;100638.89;130902;1257;108602;-76
2023/10/17 13:40:02;;;;;;;4.90;1.50;;;;;;;9.57;61.34;100630.77;130825;1254;106758;-76
2023/10/17 13:43:10;;;;;;;4.90;2.10;;;;;;;9.63;61.40;100627.61;130856;1257;107404;-76
2023/10/17 13:46:17;;;;;;;4.10;2.30;;;;;;;9.66;61.47;100624.16;130791;1256;107710;-75
2023/10/17 13:49:23;;;;;;;10.10;5.10;;;;;;;9.67;61.52;100625.63;130902;1257;107621;-75
2023/10/17 13:52:28;;;;;;;5.70;3.10;;;;;;;9.63;60.79;100626.52;130794;1266;108176;-76
2023/10/17 13:55:38;;;;;;;22.70;11.60;;;;;;;9.54;61.03;100626.98;130860;1257;108763;-76
2023/10/17 13:58:44;;;;;;;11.60;6.10;;;;;;;9.46;61.49;100628.41;131059;1256;108188;-76
2023/10/17 14:01:52;;;;;;;42.30;20.60;;;;;;;9.36;61.13;100626.24;131022;1257;108816;-76
2023/10/17 14:04:58;;;;;;;18.80;8.70;;;;;;;9.28;61.79;100626.96;130819;1253;105734;-75
2023/10/17 14:08:05;;;;;;;18.30;8.70;;;;;;;9.24;61.78;100627.99;131093;1253;108614;-75
2023/10/17 14:11:17;;;;;;;21.60;10.50;;;;;;;9.22;61.64;100625.16;130888;1253;107443;-75
2023/10/17 14:14:24;;;;;;;;;;;;;;;9.19;61.83;100624.34;130946;1258;107529;-77
2023/10/17 14:17:30;;;;;;;8.20;4.40;;;;;;;9.13;61.92;100618.70;131059;1257;106627;-75
2023/10/17 14:20:40;;;;;;;5.60;3.10;;;;;;;9.11;62.20;100618.14;130818;1257;108442;-76
2023/10/17 14:23:57;;;;;;;7.90;4.80;;;;;;;9.08;62.19;100614.00;131195;1252;107162;-76
2023/10/17 14:27:11;;;;;;;10.60;5.50;;;;;;;9.03;62.37;100611.77;131061;1252;108740;-76
2023/10/17 14:30:17;;;;;;;16.10;10.40;;;;;;;9.01;62.42;100609.48;131026;1258;106881;-75
2023/10/17 14:33:23;;;;;;;119.90;54.40;;;;;;;8.99;62.58;100608.02;130683;1253;108767;-75
2023/10/17 14:36:29;;;;;;;120.30;50.70;;;;;;;9.00;62.52;100598.67;130744;1256;108746;-77
2023/10/17 14:39:36;;;;;;;267.50;109.70;;;;;;;9.00;62.82;100594.08;130913;1256;107887;-77
2023/10/17 14:42:44;;;;;;;28.80;13.60;;;;;;;9.01;62.67;100594.02;130774;1254;107673;-77
2023/10/17 14:45:50;;;;;;;182.80;72.50;;;;;;;8.98;62.69;100592.31;131026;1257;108649;-77
2023/10/17 14:48:55;;;;;;;75.80;29.60;;;;;;;8.97;63.02;100588.20;130854;1257;108644;-77
2023/10/17 14:52:01;;;;;;;294.30;126.20;;;;;;;8.94;62.69;100590.50;131040;1254;107763;-77
2023/10/17 14:55:13;;;;;;;61.50;24.90;;;;;;;8.92;62.78;100587.59;130898;1255;105668;-77
2023/10/17 14:58:20;;;;;;;79.70;31.90;;;;;;;8.87;62.85;100584.95;130956;1256;108578;-78
2023/10/17 15:01:26;;;;;;;15.50;6.70;;;;;;;8.81;62.75;100590.27;130951;1253;107568;-77
2023/10/17 15:04:33;;;;;;;14.80;7.90;;;;;;;8.74;63.09;100590.65;131227;1257;108517;-78
2023/10/17 15:07:39;;;;;;;14.40;8.70;;;;;;;8.69;62.93;100590.42;131600;1252;107931;-78
2023/10/17 15:10:45;;;;;;;35.10;21.70;;;;;;;8.64;63.17;100587.58;130982;1251;106725;-78
2023/10/17 15:13:50;;;;;;;20.90;13.30;;;;;;;8.61;63.23;100584.15;131368;1256;107558;-77
2023/10/17 15:16:56;;;;;;;14.10;8.80;;;;;;;8.56;63.40;100584.96;131223;1253;108608;-77
2023/10/17 15:20:02;;;;;;;8.40;5.40;;;;;;;8.50;63.65;100582.83;131148;1253;105846;-77
2023/10/17 15:23:10;;;;;;;6.30;3.40;;;;;;;8.42;63.89;100585.64;131337;1253;107674;-77
2023/10/17 15:26:16;;;;;;;4.20;2.10;;;;;;;8.30;64.04;100578.45;130960;1254;108599;-77
2023/10/17 15:29:22;;;;;;;4.20;2.00;;;;;;;8.19;64.20;100573.32;130901;1257;107710;-78
2023/10/17 15:32:28;;;;;;;3.10;1.80;;;;;;;8.05;64.31;100575.06;130871;1253;108493;-78
2023/10/17 15:35:33;;;;;;;1.90;1.50;;;;;;;7.89;64.54;100576.04;131026;1253;106598;-78
2023/10/17 15:38:41;;;;;;;3.60;1.50;;;;;;;7.73;64.51;100578.81;131035;1255;108563;-78
2023/10/17 15:41:46;;;;;;;5.30;2.20;;;;;;;7.59;64.79;100576.90;130895;1257;107170;-79
2023/10/17 15:44:52;;;;;;;3.60;1.90;;;;;;;7.46;64.87;100579.21;130857;1267;105970;-78
2023/10/17 15:47:58;;;;;;;4.70;2.20;;;;;;;7.32;64.98;100583.54;130862;1254;106639;-78
2023/10/17 15:51:04;;;;;;;4.60;2.30;;;;;;;7.18;65.20;100585.69;131428;1253;107841;-78